Time;durP1;ratioP1;P1;durP2;ratioP2;P2;SDS_P1;SDS_P2;PMS_P1;PMS_P2;Temp;Humidity;BMP_temperature;BMP_pressure;BME280_temperature;BME280_humidity;BME280_pressure;Samples;Min_cycle;Max_cycle;Signal;HPM_P1;HPM_P2
2023/06/26 00:01:02;;;;;;;8.52;5.72;;;;;;;-145.69;nan;51858.22;5054412;28;20204;-88
2023/06/26 00:03:29;;;;;;;9.38;6.07;;;;;;;-145.69;nan;51844.38;5053847;28;20203;-89
2023/06/26 00:06:00;;;;;;;10.52;6.38;;;;;;;-145.69;nan;51834.47;5054206;28;20210;-89
2023/06/26 00:08:27;;;;;;;11.63;6.65;;;;;;;-145.69;nan;51868.13;5054670;28;20214;-88
2023/06/26 00:10:53;;;;;;;11.27;5.85;;;;;;;-145.69;nan;51868.13;5054181;28;20227;-88
2023/06/26 00:13:22;;;;;;;11.32;6.55;;;;;;;-145.69;nan;51872.09;5054573;28;20203;-89
2023/06/26 00:15:49;;;;;;;10.00;6.15;;;;;;;-145.69;nan;51868.13;5054109;28;20195;-89
2023/06/26 00:18:15;;;;;;;8.90;6.15;;;;;;;-145.69;nan;51876.06;5054811;28;20214;-88
2023/06/26 00:20:42;;;;;;;11.50;6.20;;;;;;;-145.69;nan;51893.88;5057361;28;20202;-89
2023/06/26 00:23:08;;;;;;;12.00;6.05;;;;;;;-145.69;nan;51854.28;5074105;28;20642;-89
2023/06/26 00:25:35;;;;;;;10.80;5.75;;;;;;;-145.69;nan;51882.00;5074166;28;20202;-88
2023/06/26 00:28:01;;;;;;;11.57;6.88;;;;;;;-145.69;nan;51885.94;5074366;28;20202;-89
2023/06/26 00:30:29;;;;;;;9.30;5.75;;;;;;;-145.69;nan;51876.06;5073986;28;20233;-88
2023/06/26 00:32:56;;;;;;;11.02;6.00;;;;;;;-145.69;nan;51880.00;5074295;28;20194;-88
2023/06/26 00:35:22;;;;;;;9.73;6.07;;;;;;;-145.69;nan;51856.25;5074227;28;20199;-89
2023/06/26 00:37:49;;;;;;;10.68;5.93;;;;;;;-145.69;nan;51870.13;5074312;28;20198;-88
2023/06/26 00:40:15;;;;;;;9.83;6.30;;;;;;;-145.69;nan;51866.16;5073163;28;20426;-88
2023/06/26 00:42:42;;;;;;;11.18;6.30;;;;;;;-145.69;nan;51878.03;5074148;28;20214;-88
2023/06/26 00:45:09;;;;;;;12.05;6.65;;;;;;;-145.69;nan;51848.34;5073823;28;20195;-88
2023/06/26 00:47:38;;;;;;;11.05;6.32;;;;;;;-145.69;nan;51899.81;5074170;28;20210;-88
2023/06/26 00:50:05;;;;;;;12.13;6.05;;;;;;;-145.69;nan;51866.16;5073729;28;20593;-89
2023/06/26 00:52:32;;;;;;;11.05;6.10;;;;;;;-145.69;nan;51895.84;5074133;28;20207;-89
2023/06/26 00:54:59;;;;;;;12.70;6.63;;;;;;;-145.69;nan;51862.19;5074005;28;20206;-89
2023/06/26 00:57:25;;;;;;;8.95;5.78;;;;;;;-145.69;nan;51883.97;5073753;28;20688;-89
2023/06/26 00:59:52;;;;;;;12.60;5.45;;;;;;;-145.69;nan;51842.38;5073701;28;20198;-89
2023/06/26 01:02:19;;;;;;;10.18;6.28;;;;;;;-145.69;nan;51901.78;5074056;28;20199;-89
2023/06/26 01:04:48;;;;;;;10.50;5.78;;;;;;;-145.69;nan;51880.00;5072616;28;20207;-88
2023/06/26 01:07:18;;;;;;;10.38;6.28;;;;;;;-145.69;nan;51901.78;5074233;28;20202;-88
2023/06/26 01:09:45;;;;;;;9.20;5.88;;;;;;;-145.69;nan;51874.06;5074142;28;20338;-89
2023/06/26 01:12:12;;;;;;;9.50;6.20;;;;;;;-145.69;nan;51883.97;5073817;28;20206;-89
2023/06/26 01:14:39;;;;;;;11.52;5.60;;;;;;;-145.69;nan;51891.88;5074089;28;20557;-90
2023/06/26 01:17:06;;;;;;;11.05;6.40;;;;;;;-145.69;nan;51874.06;5077826;28;20214;-89
2023/06/26 01:19:34;;;;;;;10.80;6.90;;;;;;;-145.69;nan;51893.88;5077257;28;20457;-89
2023/06/26 01:22:15;;;;;;;9.85;5.80;;;;;;;-145.69;nan;51882.00;5077694;28;20217;-89
2023/06/26 01:24:51;;;;;;;9.73;5.63;;;;;;;-145.69;nan;51905.75;5076911;28;20607;-89
2023/06/26 01:27:21;;;;;;;12.25;6.30;;;;;;;-145.69;nan;51891.88;5077698;28;20198;-90
2023/06/26 01:29:49;;;;;;;9.40;5.90;;;;;;;-145.69;nan;51897.84;5077487;28;20226;-91
2023/06/26 01:32:16;;;;;;;10.88;6.07;;;;;;;-145.69;nan;51878.03;5077812;28;20207;-89
2023/06/26 01:34:44;;;;;;;9.73;5.90;;;;;;;-145.69;nan;51876.06;5077393;28;20281;-90
2023/06/26 01:37:11;;;;;;;8.45;5.78;;;;;;;-145.69;nan;51895.84;5077349;28;20206;-89
2023/06/26 01:39:37;;;;;;;10.98;5.82;;;;;;;-145.69;nan;51905.75;5077484;28;20211;-90
2023/06/26 01:42:04;;;;;;;11.90;6.07;;;;;;;-145.69;nan;51866.16;5077129;28;20199;-89
2023/06/26 01:44:37;;;;;;;9.55;5.82;;;;;;;-145.69;nan;51880.00;5077066;28;20206;-89
2023/06/26 01:47:05;;;;;;;10.88;5.93;;;;;;;-145.69;nan;51874.06;5077261;28;20209;-90
2023/06/26 01:49:40;;;;;;;12.45;6.03;;;;;;;-145.69;nan;51854.28;5076719;28;20235;-90
2023/06/26 01:52:14;;;;;;;9.43;5.30;;;;;;;-145.69;nan;51885.94;5077173;28;20213;-90
2023/06/26 01:54:49;;;;;;;9.23;5.45;;;;;;;-145.69;nan;51909.72;5077322;28;20229;-89
2023/06/26 01:57:19;;;;;;;8.20;5.43;;;;;;;-145.69;nan;51889.91;5077245;28;20256;-90
2023/06/26 01:59:48;;;;;;;8.95;5.75;;;;;;;-145.69;nan;51905.75;5076950;28;20203;-89
2023/06/26 02:02:15;;;;;;;8.93;5.53;;;;;;;-145.69;nan;51893.88;5076988;28;20199;-89
2023/06/26 02:04:41;;;;;;;9.65;5.45;;;;;;;-145.69;nan;51893.88;5077370;28;20199;-89
2023/06/26 02:07:09;;;;;;;8.82;5.65;;;;;;;-145.69;nan;51909.72;5076900;28;20210;-90
2023/06/26 02:09:35;;;;;;;9.27;5.80;;;;;;;-145.69;nan;51913.69;5076614;28;20213;-89
2023/06/26 02:12:02;;;;;;;9.73;6.20;;;;;;;-145.69;nan;51872.09;5076755;28;20206;-89
2023/06/26 02:14:28;;;;;;;12.50;6.15;;;;;;;-145.69;nan;51897.84;5076516;28;20214;-89
2023/06/26 02:16:57;;;;;;;9.85;5.85;;;;;;;-145.69;nan;51891.88;5076853;28;20650;-89
2023/06/26 02:19:24;;;;;;;13.88;6.20;;;;;;;-145.69;nan;51895.84;5075562;28;20232;-90
2023/06/26 02:21:51;;;;;;;9.95;5.50;;;;;;;-145.69;nan;51913.69;5076130;28;20199;-89
2023/06/26 02:24:18;;;;;;;11.02;5.75;;;;;;;-145.69;nan;51897.84;5075773;28;20206;-89
2023/06/26 02:26:44;;;;;;;9.55;6.00;;;;;;;-145.69;nan;51889.91;5075940;28;20198;-90
2023/06/26 02:29:11;;;;;;;8.00;5.63;;;;;;;-145.69;nan;51899.81;5075258;28;20209;-89
2023/06/26 02:31:37;;;;;;;12.77;6.00;;;;;;;-145.69;nan;51897.84;5076232;28;20555;-88
2023/06/26 02:34:05;;;;;;;8.85;5.38;;;;;;;-145.69;nan;51909.72;5076408;28;20206;-90
2023/06/26 02:36:31;;;;;;;8.82;6.05;;;;;;;-145.69;nan;51891.88;5075210;28;20264;-89
2023/06/26 02:38:58;;;;;;;10.13;5.93;;;;;;;-145.69;nan;51882.00;5076408;28;20210;-90
2023/06/26 02:41:24;;;;;;;10.07;6.00;;;;;;;-145.69;nan;51887.94;5076256;28;20203;-90
2023/06/26 02:43:51;;;;;;;10.70;6.18;;;;;;;-145.69;nan;51889.91;5058115;28;20600;-89
2023/06/26 02:46:18;;;;;;;8.52;5.35;;;;;;;-145.69;nan;51885.94;5075935;28;20221;-90
2023/06/26 02:48:44;;;;;;;11.63;6.68;;;;;;;-145.69;nan;51925.56;5076080;28;20202;-89
2023/06/26 02:51:12;;;;;;;8.48;5.68;;;;;;;-145.69;nan;51899.81;5076058;28;20226;-89
2023/06/26 02:53:38;;;;;;;13.10;5.55;;;;;;;-145.69;nan;51897.84;5075950;28;20214;-90
2023/06/26 02:56:05;;;;;;;9.20;5.57;;;;;;;-145.69;nan;51901.78;5076132;28;20198;-90
2023/06/26 02:58:32;;;;;;;9.32;6.13;;;;;;;-145.69;nan;51872.09;5076158;28;20210;-90
2023/06/26 03:00:58;;;;;;;9.13;5.88;;;;;;;-145.69;nan;51945.34;5075738;28;20218;-90
2023/06/26 03:03:25;;;;;;;10.68;5.60;;;;;;;-145.69;nan;51925.56;5075596;28;20214;-90
2023/06/26 03:05:51;;;;;;;10.88;5.78;;;;;;;-145.69;nan;51933.47;5075753;28;20210;-90
2023/06/26 03:08:19;;;;;;;11.20;6.43;;;;;;;-145.69;nan;51925.56;5075576;28;20908;-90
2023/06/26 03:10:45;;;;;;;11.90;6.00;;;;;;;-145.69;nan;51941.41;5075596;28;20242;-90
2023/06/26 03:13:12;;;;;;;7.38;5.03;;;;;;;-145.69;nan;51909.72;5075446;28;20206;-90
2023/06/26 03:15:38;;;;;;;9.00;5.20;;;;;;;-145.69;nan;51878.03;5075631;28;20199;-89
2023/06/26 03:18:05;;;;;;;11.93;5.97;;;;;;;-145.69;nan;51921.59;5075343;28;20195;-90
2023/06/26 03:20:31;;;;;;;9.10;5.97;;;;;;;-145.69;nan;51937.44;5074599;28;20427;-91
2023/06/26 03:22:58;;;;;;;10.80;5.85;;;;;;;-145.69;nan;51903.78;5075475;28;20206;-90
2023/06/26 03:25:26;;;;;;;10.02;5.68;;;;;;;-145.69;nan;51921.59;5075466;28;20282;-89
2023/06/26 03:27:53;;;;;;;10.63;5.85;;;;;;;-145.69;nan;51921.59;5075115;28;20662;-90
2023/06/26 03:30:19;;;;;;;10.60;5.65;;;;;;;-145.69;nan;51895.84;5075360;28;20231;-90
2023/06/26 03:32:46;;;;;;;9.57;5.47;;;;;;;-145.69;nan;51925.56;5074541;28;20210;-89
2023/06/26 03:35:12;;;;;;;10.55;5.55;;;;;;;-145.69;nan;51911.69;5075268;28;20203;-89
2023/06/26 03:37:40;;;;;;;9.90;5.53;;;;;;;-145.69;nan;51905.75;5074167;28;20218;-90
2023/06/26 03:40:08;;;;;;;10.13;5.55;;;;;;;-145.69;nan;51897.84;5075297;28;20685;-89
2023/06/26 03:42:36;;;;;;;11.85;5.20;;;;;;;-145.69;nan;51905.75;5074847;28;20676;-89
2023/06/26 03:45:02;;;;;;;9.70;5.78;;;;;;;-145.69;nan;51901.78;5075179;28;20557;-90
2023/06/26 03:47:29;;;;;;;9.52;5.88;;;;;;;-145.69;nan;51939.41;5074865;28;20194;-90
2023/06/26 03:49:55;;;;;;;9.38;6.05;;;;;;;-145.69;nan;51933.47;5074790;28;20237;-90
2023/06/26 03:52:21;;;;;;;9.45;5.63;;;;;;;-145.69;nan;51917.63;5075077;28;20214;-89
2023/06/26 03:54:48;;;;;;;7.53;5.30;;;;;;;-145.69;nan;51901.78;5074827;28;20205;-89
2023/06/26 03:57:15;;;;;;;9.80;5.63;;;;;;;-145.69;nan;51895.84;5075020;28;20732;-90
2023/06/26 03:59:43;;;;;;;9.65;6.00;;;;;;;-145.69;nan;51911.69;5074671;28;20206;-90
2023/06/26 04:02:09;;;;;;;9.38;5.60;;;;;;;-145.69;nan;51937.44;5074621;28;20231;-90
2023/06/26 04:04:36;;;;;;;14.50;6.32;;;;;;;-145.69;nan;51909.72;5073489;28;20210;-90
2023/06/26 04:07:02;;;;;;;13.45;5.93;;;;;;;-145.69;nan;51921.59;5074769;28;20207;-89
2023/06/26 04:09:28;;;;;;;9.88;5.43;;;;;;;-145.69;nan;51937.44;5074326;28;20638;-90
2023/06/26 04:11:55;;;;;;;11.80;5.28;;;;;;;-145.69;nan;51953.28;5074283;28;20704;-89
2023/06/26 04:14:21;;;;;;;8.65;5.43;;;;;;;-145.69;nan;51923.56;5074299;28;20680;-90
2023/06/26 04:16:49;;;;;;;8.18;5.10;;;;;;;-145.69;nan;51921.59;5074418;28;20206;-90
2023/06/26 04:19:16;;;;;;;8.82;5.57;;;;;;;-145.69;nan;51925.56;5073560;28;20205;-90
2023/06/26 04:21:42;;;;;;;8.13;5.57;;;;;;;-145.69;nan;51929.50;5074607;28;20281;-90
2023/06/26 04:24:09;;;;;;;11.80;5.97;;;;;;;-145.69;nan;51933.47;5074349;28;20207;-90
2023/06/26 04:26:35;;;;;;;8.75;5.40;;;;;;;-145.69;nan;51949.31;5074867;28;20206;-89
2023/06/26 04:29:03;;;;;;;9.48;5.05;;;;;;;-145.69;nan;51909.72;5074335;28;20194;-91
2023/06/26 04:31:29;;;;;;;8.43;5.57;;;;;;;-145.69;nan;51909.72;5074020;28;20245;-90
2023/06/26 04:33:59;;;;;;;7.97;5.10;;;;;;;-145.69;nan;51901.78;5074235;28;20195;-91
2023/06/26 04:36:28;;;;;;;10.27;5.57;;;;;;;-145.69;nan;51921.59;5074226;28;20564;-90
2023/06/26 04:38:55;;;;;;;10.45;5.68;;;;;;;-145.69;nan;51915.66;5074185;28;20202;-90
2023/06/26 04:41:22;;;;;;;8.98;5.53;;;;;;;-145.69;nan;51919.63;5074242;28;20206;-90
2023/06/26 04:43:48;;;;;;;7.55;5.40;;;;;;;-145.69;nan;51915.66;5074206;28;20207;-90
2023/06/26 04:46:15;;;;;;;7.82;5.32;;;;;;;-145.69;nan;51965.16;5074327;28;20203;-90
2023/06/26 04:48:41;;;;;;;11.95;5.75;;;;;;;-145.69;nan;51933.47;5073864;28;20198;-90
2023/06/26 04:51:09;;;;;;;10.10;5.57;;;;;;;-145.69;nan;51943.38;5074184;28;20215;-91
2023/06/26 04:53:35;;;;;;;10.57;5.80;;;;;;;-145.69;nan;51927.53;5074132;28;20207;-90
2023/06/26 04:56:02;;;;;;;9.25;5.70;;;;;;;-145.69;nan;51933.47;5074181;28;20203;-89
2023/06/26 04:58:28;;;;;;;10.00;5.93;;;;;;;-145.69;nan;51927.53;5074356;28;20202;-90
2023/06/26 05:00:55;;;;;;;7.95;5.00;;;;;;;-145.69;nan;51909.72;5074161;28;20210;-90
2023/06/26 05:03:22;;;;;;;7.55;5.22;;;;;;;-145.69;nan;51899.81;5072883;28;20701;-90
2023/06/26 05:05:50;;;;;;;9.77;5.20;;;;;;;-145.69;nan;51905.75;5073844;28;20194;-89
2023/06/26 05:08:19;;;;;;;8.05;4.90;;;;;;;-145.69;nan;51933.47;5074219;28;20293;-90
2023/06/26 05:10:46;;;;;;;8.18;5.30;;;;;;;-145.69;nan;51913.69;5073984;28;20230;-90
2023/06/26 05:13:14;;;;;;;9.35;5.50;;;;;;;-145.69;nan;51949.31;5074430;28;20210;-90
2023/06/26 05:15:41;;;;;;;7.55;5.30;;;;;;;-145.69;nan;51917.63;5073515;28;20233;-90
2023/06/26 05:18:08;;;;;;;10.82;6.10;;;;;;;-145.69;nan;51941.41;5073682;28;20455;-90
2023/06/26 05:20:35;;;;;;;8.32;5.47;;;;;;;-145.69;nan;51949.31;5073984;28;20547;-90
2023/06/26 05:23:02;;;;;;;10.07;5.63;;;;;;;-145.69;nan;51923.56;5073837;28;20657;-91
2023/06/26 05:25:30;;;;;;;7.93;5.47;;;;;;;-145.69;nan;51947.34;5073741;28;20669;-90
2023/06/26 05:27:57;;;;;;;8.93;4.95;;;;;;;-145.69;nan;51901.78;5073821;28;20214;-90
2023/06/26 05:30:26;;;;;;;7.95;5.20;;;;;;;-145.69;nan;51905.75;5073671;28;20681;-90
2023/06/26 05:32:53;;;;;;;9.75;5.28;;;;;;;-145.69;nan;51905.75;5073809;28;20327;-89
2023/06/26 05:35:21;;;;;;;10.05;5.35;;;;;;;-145.69;nan;51943.38;5073757;28;20214;-90
2023/06/26 05:37:49;;;;;;;7.70;5.22;;;;;;;-145.69;nan;51955.25;5073625;28;20226;-90
2023/06/26 05:40:17;;;;;;;10.80;5.43;;;;;;;-145.69;nan;51923.56;5073634;28;20214;-90
2023/06/26 05:42:46;;;;;;;8.48;5.60;;;;;;;-145.69;nan;51917.63;5072302;28;20199;-90
2023/06/26 05:45:13;;;;;;;9.18;5.43;;;;;;;-145.69;nan;51901.78;5073283;28;20214;-90
2023/06/26 05:47:39;;;;;;;8.20;4.70;;;;;;;-145.69;nan;51925.56;5073506;28;20206;-90
2023/06/26 05:50:08;;;;;;;7.72;4.80;;;;;;;-145.69;nan;51923.56;5073422;28;20612;-90
2023/06/26 05:52:35;;;;;;;9.73;5.30;;;;;;;-145.69;nan;51899.81;5073113;28;20237;-90
2023/06/26 05:55:02;;;;;;;6.75;4.80;;;;;;;-145.69;nan;51893.88;5073406;28;20199;-89
2023/06/26 05:57:29;;;;;;;8.57;5.43;;;;;;;-145.69;nan;51893.88;5073627;28;20199;-89
2023/06/26 05:59:58;;;;;;;9.65;4.75;;;;;;;-145.69;nan;51909.72;5073621;28;20198;-89
2023/06/26 06:02:24;;;;;;;8.23;4.85;;;;;;;-145.69;nan;51901.78;5076117;28;20203;-89
2023/06/26 06:04:51;;;;;;;9.77;5.53;;;;;;;-145.69;nan;51911.69;5076859;28;20626;-89
2023/06/26 06:07:17;;;;;;;7.68;4.90;;;;;;;-145.69;nan;51923.56;5076605;28;20582;-89
2023/06/26 06:09:44;;;;;;;7.35;4.90;;;;;;;-145.69;nan;51911.69;5076675;28;20294;-89
2023/06/26 06:12:11;;;;;;;7.30;5.05;;;;;;;-145.69;nan;51868.13;5074620;28;20231;-89
2023/06/26 06:14:37;;;;;;;8.57;4.60;;;;;;;-145.69;nan;51905.75;5076796;28;20199;-89
2023/06/26 06:17:05;;;;;;;7.28;4.80;;;;;;;-145.69;nan;51887.94;5076691;28;20213;-89
2023/06/26 06:19:32;;;;;;;11.35;5.07;;;;;;;-145.69;nan;51889.91;5076493;28;20662;-89
2023/06/26 06:21:58;;;;;;;6.68;4.70;;;;;;;-145.69;nan;51899.81;5076646;28;20205;-89
2023/06/26 06:24:24;;;;;;;7.65;4.63;;;;;;;-145.69;nan;51882.00;5076836;28;20210;-89
2023/06/26 06:26:51;;;;;;;7.20;4.57;;;;;;;-145.69;nan;51913.69;5077735;28;20206;-89
2023/06/26 06:29:18;;;;;;;7.25;4.78;;;;;;;-145.69;nan;51895.84;5075498;28;20268;-88
2023/06/26 06:31:45;;;;;;;7.88;4.40;;;;;;;-145.69;nan;51885.94;5076455;28;20262;-89
2023/06/26 06:34:13;;;;;;;6.47;4.40;;;;;;;-145.69;nan;51885.94;5076736;28;20202;-89
2023/06/26 06:36:40;;;;;;;6.18;4.05;;;;;;;-145.69;nan;51878.03;5075621;28;20237;-89
2023/06/26 06:39:06;;;;;;;8.20;4.50;;;;;;;-145.69;nan;51872.09;5074952;28;20438;-89
2023/06/26 06:41:33;;;;;;;6.68;4.28;;;;;;;-145.69;nan;51885.94;5076524;28;20561;-89
2023/06/26 06:43:59;;;;;;;5.57;3.88;;;;;;;-145.69;nan;51883.97;5076371;28;20207;-89
2023/06/26 06:46:26;;;;;;;6.53;4.32;;;;;;;-145.69;nan;51870.13;5075439;28;20203;-89
2023/06/26 06:48:53;;;;;;;8.15;4.25;;;;;;;-145.69;nan;51874.06;5074841;28;20657;-89
2023/06/26 06:51:21;;;;;;;6.53;4.13;;;;;;;-145.69;nan;51882.00;5076056;28;20219;-88
2023/06/26 06:53:47;;;;;;;5.60;3.92;;;;;;;-145.69;nan;51862.19;5076353;28;20225;-89
2023/06/26 06:56:14;;;;;;;7.65;4.40;;;;;;;-145.69;nan;51850.31;5076119;28;20206;-89
2023/06/26 06:58:42;;;;;;;8.68;4.13;;;;;;;-145.69;nan;51860.22;5075943;28;20207;-89
2023/06/26 07:01:09;;;;;;;7.35;4.13;;;;;;;-145.69;nan;51838.44;5075232;28;20285;-87
2023/06/26 07:03:35;;;;;;;6.25;3.83;;;;;;;-145.69;nan;51842.38;5075557;28;20661;-88
2023/06/26 07:06:03;;;;;;;6.20;3.92;;;;;;;-145.69;nan;51842.38;5075834;28;20219;-88
2023/06/26 07:08:31;;;;;;;5.85;4.20;;;;;;;-145.69;nan;51812.69;5074853;28;20206;-88
2023/06/26 07:10:58;;;;;;;11.55;4.20;;;;;;;-145.69;nan;51850.31;5075474;28;20208;-88
2023/06/26 07:13:24;;;;;;;6.75;4.30;;;;;;;-145.69;nan;51834.47;5075409;28;20764;-88
2023/06/26 07:15:50;;;;;;;6.13;4.05;;;;;;;-145.69;nan;51822.59;5075577;28;20726;-88
2023/06/26 07:18:17;;;;;;;5.63;4.22;;;;;;;-145.69;nan;51822.59;5075425;28;20658;-88
2023/06/26 07:20:44;;;;;;;8.00;4.13;;;;;;;-145.69;nan;51830.50;5075364;28;20206;-89
2023/06/26 07:23:10;;;;;;;7.32;4.20;;;;;;;-145.69;nan;51826.56;5075593;28;20206;-89
2023/06/26 07:25:38;;;;;;;7.07;4.50;;;;;;;-145.69;nan;51822.59;5075272;28;20210;-90
2023/06/26 07:28:11;;;;;;;6.20;4.07;;;;;;;-145.69;nan;51850.31;5075587;28;20202;-89
2023/06/26 07:30:37;;;;;;;11.60;3.78;;;;;;;-145.69;nan;51822.59;5075069;28;20292;-89
2023/06/26 07:33:04;;;;;;;5.78;4.13;;;;;;;-145.69;nan;51854.28;5075150;28;20225;-89
2023/06/26 07:35:30;;;;;;;9.43;4.00;;;;;;;-145.69;nan;51824.56;5074787;28;20202;-88
2023/06/26 07:37:57;;;;;;;6.20;4.30;;;;;;;-145.69;nan;51810.72;5073079;28;20230;-90
2023/06/26 07:40:23;;;;;;;10.70;4.55;;;;;;;-145.69;nan;51820.59;5074304;28;20205;-87
2023/06/26 07:42:51;;;;;;;6.07;4.32;;;;;;;-145.69;nan;51834.47;5074259;28;20203;-86
2023/06/26 07:45:18;;;;;;;7.82;4.60;;;;;;;-145.69;nan;51814.66;5073319;28;20454;-87
2023/06/26 07:47:45;;;;;;;6.68;4.18;;;;;;;-145.69;nan;51814.66;5074384;28;20206;-87
2023/06/26 07:50:11;;;;;;;5.60;4.25;;;;;;;-145.69;nan;51802.78;5073365;28;20238;-87
2023/06/26 07:52:38;;;;;;;5.78;4.20;;;;;;;-145.69;nan;51786.94;5073864;28;20229;-90
2023/06/26 07:55:05;;;;;;;6.53;4.28;;;;;;;-145.69;nan;51822.59;5074007;28;20202;-89
2023/06/26 07:57:32;;;;;;;6.38;4.20;;;;;;;-145.69;nan;51820.59;5074515;28;20202;-87
2023/06/26 08:00:00;;;;;;;5.88;4.30;;;;;;;-145.69;nan;51822.59;5073894;28;20195;-86
2023/06/26 08:02:26;;;;;;;7.75;4.20;;;;;;;-145.69;nan;51806.75;5073766;28;20197;-87
2023/06/26 08:04:53;;;;;;;8.43;4.70;;;;;;;-145.69;nan;51794.88;5071799;28;20203;-86
2023/06/26 08:07:19;;;;;;;10.38;4.30;;;;;;;-145.69;nan;51820.59;5064622;28;20203;-86
2023/06/26 08:09:46;;;;;;;7.40;4.25;;;;;;;-145.69;nan;51822.59;5073617;28;20202;-86
2023/06/26 08:12:12;;;;;;;10.50;4.45;;;;;;;-145.69;nan;51812.69;5073195;28;20229;-84
2023/06/26 08:14:38;;;;;;;7.38;4.32;;;;;;;-145.69;nan;51798.81;5073375;28;20202;-83
2023/06/26 08:17:06;;;;;;;5.47;3.97;;;;;;;-145.69;nan;51832.50;5073201;28;20199;-86
2023/06/26 08:19:33;;;;;;;6.00;4.38;;;;;;;-145.69;nan;51810.72;5073509;28;20201;-87
2023/06/26 08:22:02;;;;;;;9.35;4.68;;;;;;;-145.69;nan;51806.75;5073715;28;20202;-86
2023/06/26 08:24:32;;;;;;;5.95;3.70;;;;;;;-145.69;nan;51800.81;5073318;28;20202;-86
2023/06/26 08:27:07;;;;;;;8.60;4.20;;;;;;;-145.69;nan;51786.94;5073475;28;20198;-86
2023/06/26 08:29:35;;;;;;;7.45;4.03;;;;;;;-145.69;nan;51779.03;5072883;28;20206;-86
2023/06/26 08:32:03;;;;;;;8.23;4.35;;;;;;;-145.69;nan;51792.88;5073149;28;20223;-86
2023/06/26 08:34:30;;;;;;;6.32;4.50;;;;;;;-145.69;nan;51806.75;5073600;28;20248;-85
2023/06/26 08:36:57;;;;;;;7.70;4.38;;;;;;;-145.69;nan;51802.78;5072322;28;20194;-83
2023/06/26 08:39:23;;;;;;;8.30;4.72;;;;;;;-145.69;nan;51792.88;5071587;28;20195;-86
2023/06/26 08:41:53;;;;;;;7.30;4.07;;;;;;;-145.69;nan;51767.16;5072540;28;20206;-85
2023/06/26 08:44:24;;;;;;;6.95;4.50;;;;;;;-145.69;nan;51783.00;5071761;28;20206;-85
2023/06/26 08:46:51;;;;;;;7.78;4.15;;;;;;;-145.69;nan;51816.66;5073158;28;20234;-86
2023/06/26 08:49:21;;;;;;;6.70;4.70;;;;;;;-145.69;nan;51769.13;5071252;28;20230;-85
2023/06/26 08:51:56;;;;;;;8.65;5.00;;;;;;;-145.69;nan;51822.59;5072884;28;20229;-85
2023/06/26 08:54:32;;;;;;;9.18;4.90;;;;;;;-145.69;nan;51784.97;5073055;28;20534;-84
2023/06/26 08:56:59;;;;;;;7.60;4.65;;;;;;;-145.69;nan;51798.81;5073179;28;20210;-86
2023/06/26 08:59:26;;;;;;;9.15;4.68;;;;;;;-145.69;nan;51786.94;5073044;28;20241;-85
2023/06/26 09:01:53;;;;;;;6.22;4.68;;;;;;;-145.69;nan;51781.00;5072740;28;20669;-84
2023/06/26 09:04:20;;;;;;;9.98;4.55;;;;;;;-145.69;nan;51790.91;5072885;28;20549;-83
2023/06/26 09:06:46;;;;;;;6.18;4.50;;;;;;;-145.69;nan;51779.03;5072764;28;20206;-83
2023/06/26 09:09:14;;;;;;;9.50;4.32;;;;;;;-145.69;nan;51779.03;5072553;28;20202;-86
2023/06/26 09:11:41;;;;;;;9.00;4.50;;;;;;;-145.69;nan;51808.72;5073012;28;20206;-86
2023/06/26 09:14:10;;;;;;;7.38;4.60;;;;;;;-145.69;nan;51794.88;5073539;28;20199;-86
2023/06/26 09:16:41;;;;;;;7.13;4.20;;;;;;;-145.69;nan;51816.66;5072779;28;20669;-85
2023/06/26 09:19:11;;;;;;;6.45;4.47;;;;;;;-145.69;nan;51783.00;5072728;28;20195;-85
2023/06/26 09:21:38;;;;;;;7.00;4.63;;;;;;;-145.69;nan;51753.28;5072911;28;20248;-85
2023/06/26 09:24:07;;;;;;;6.30;4.43;;;;;;;-145.69;nan;51771.09;5073052;28;20202;-86
2023/06/26 09:26:36;;;;;;;10.18;4.25;;;;;;;-145.69;nan;51818.63;5072968;28;20228;-86
2023/06/26 09:29:03;;;;;;;6.88;4.57;;;;;;;-145.69;nan;51775.06;5072856;28;20226;-84
2023/06/26 09:31:30;;;;;;;9.35;4.90;;;;;;;-145.69;nan;51779.03;5072125;28;20191;-85
2023/06/26 09:33:59;;;;;;;9.30;4.40;;;;;;;-145.69;nan;51779.03;5072437;28;20624;-83
2023/06/26 09:36:28;;;;;;;8.68;4.65;;;;;;;-145.69;nan;51800.81;5074080;28;20203;-85
2023/06/26 09:38:55;;;;;;;6.82;3.90;;;;;;;-145.69;nan;51771.09;5076062;28;20203;-85
2023/06/26 09:41:22;;;;;;;7.22;4.30;;;;;;;-145.69;nan;51771.09;5076505;28;20562;-84
2023/06/26 09:43:50;;;;;;;7.78;3.92;;;;;;;-145.69;nan;51781.00;5076306;28;20206;-84
2023/06/26 09:46:17;;;;;;;6.75;4.45;;;;;;;-145.69;nan;51763.19;5076357;28;20199;-84
2023/06/26 09:48:44;;;;;;;10.80;4.40;;;;;;;-145.69;nan;51786.94;5075301;28;20198;-84
2023/06/26 09:51:10;;;;;;;8.00;4.60;;;;;;;-145.69;nan;51790.91;5076153;28;20203;-83
2023/06/26 09:53:37;;;;;;;6.47;4.20;;;;;;;-145.69;nan;51743.38;5076143;28;20226;-84
2023/06/26 09:56:06;;;;;;;8.85;4.60;;;;;;;-145.69;nan;51818.63;5076209;28;20202;-85
2023/06/26 09:58:33;;;;;;;6.65;4.40;;;;;;;-145.69;nan;51769.13;5076177;28;20378;-85
2023/06/26 10:01:02;;;;;;;8.93;4.55;;;;;;;-145.69;nan;51767.16;5075742;28;20199;-84
2023/06/26 10:03:28;;;;;;;8.15;4.18;;;;;;;-145.69;nan;51759.22;5075577;28;20191;-85
2023/06/26 10:05:55;;;;;;;8.35;4.60;;;;;;;-145.69;nan;51786.94;5072939;28;20208;-84
2023/06/26 10:08:22;;;;;;;7.30;4.82;;;;;;;-145.69;nan;51761.22;5075798;28;20209;-85
2023/06/26 10:10:50;;;;;;;6.30;4.20;;;;;;;-145.69;nan;51755.25;5075917;28;20554;-85
2023/06/26 10:13:25;;;;;;;7.85;4.55;;;;;;;-145.69;nan;51771.09;5075604;28;20230;-83
2023/06/26 10:15:52;;;;;;;7.10;4.60;;;;;;;-145.69;nan;51743.38;5075507;28;20561;-85
2023/06/26 10:18:25;;;;;;;6.53;4.57;;;;;;;-145.69;nan;51769.13;5075592;28;20649;-85
2023/06/26 10:20:54;;;;;;;6.63;4.63;;;;;;;-145.69;nan;51731.50;5075594;28;20198;-84
2023/06/26 10:23:24;;;;;;;6.15;4.32;;;;;;;-145.69;nan;51737.44;5075570;28;20206;-84
2023/06/26 10:25:53;;;;;;;6.63;4.53;;;;;;;-145.69;nan;51727.53;5075494;28;20680;-86
2023/06/26 10:28:21;;;;;;;6.00;4.32;;;;;;;-145.69;nan;51735.47;5075534;28;20195;-85
2023/06/26 10:30:52;;;;;;;9.93;4.80;;;;;;;-145.69;nan;51747.34;5073318;28;20256;-85
2023/06/26 10:33:21;;;;;;;7.57;4.70;;;;;;;-145.69;nan;51743.38;5074155;28;20223;-84
2023/06/26 10:35:49;;;;;;;7.03;4.65;;;;;;;-145.69;nan;51753.28;5075023;28;20198;-84
2023/06/26 10:38:15;;;;;;;7.40;4.57;;;;;;;-145.69;nan;51729.53;5074649;28;20202;-85
2023/06/26 10:40:44;;;;;;;6.55;4.10;;;;;;;-145.69;nan;51751.31;5074670;28;20202;-83
2023/06/26 10:43:12;;;;;;;15.77;4.57;;;;;;;-145.69;nan;51733.50;5074651;28;20564;-84
2023/06/26 10:45:44;;;;;;;6.90;4.78;;;;;;;-145.69;nan;51733.50;5074873;28;20209;-84
2023/06/26 10:48:13;;;;;;;7.13;4.70;;;;;;;-145.69;nan;51751.31;5073911;28;20198;-86
2023/06/26 10:50:49;;;;;;;13.60;5.10;;;;;;;-145.69;nan;51757.25;5074833;28;20230;-83
2023/06/26 10:53:19;;;;;;;13.00;4.60;;;;;;;-145.69;nan;51723.59;5074476;28;20226;-84
2023/06/26 10:55:50;;;;;;;12.05;5.07;;;;;;;-145.69;nan;51745.38;5074939;28;20258;-84
2023/06/26 10:58:31;;;;;;;9.25;4.82;;;;;;;-145.69;nan;51745.38;5074972;28;20202;-85
2023/06/26 11:01:18;;;;;;;17.08;5.13;;;;;;;-145.69;nan;51767.16;5073953;28;20198;-85
2023/06/26 11:03:47;;;;;;;7.70;4.95;;;;;;;-145.69;nan;51737.44;5073725;28;20803;-83
2023/06/26 11:06:15;;;;;;;7.15;5.13;;;;;;;-145.69;nan;51747.34;5070079;28;20202;-84
2023/06/26 11:08:53;;;;;;;7.18;4.80;;;;;;;-145.69;nan;51763.19;5074156;28;20195;-85
2023/06/26 11:11:21;;;;;;;9.88;5.25;;;;;;;-145.69;nan;51755.25;5074174;28;20675;-82
2023/06/26 11:13:48;;;;;;;9.45;5.63;;;;;;;-145.69;nan;51771.09;5074273;28;20316;-82
2023/06/26 11:16:16;;;;;;;8.65;5.13;;;;;;;-145.69;nan;51727.53;5073034;28;20199;-80
2023/06/26 11:18:43;;;;;;;10.95;5.35;;;;;;;-145.69;nan;51743.38;5074447;28;20316;-83
2023/06/26 11:21:14;;;;;;;9.23;5.97;;;;;;;-145.69;nan;51759.22;5073968;28;20742;-84
2023/06/26 11:23:42;;;;;;;7.82;4.78;;;;;;;-145.69;nan;51751.31;5074052;28;20658;-84
2023/06/26 11:26:16;;;;;;;9.18;5.50;;;;;;;-145.69;nan;51739.44;5074144;28;20613;-85
2023/06/26 11:28:48;;;;;;;9.23;5.43;;;;;;;-145.69;nan;51739.44;5073672;28;20199;-85
2023/06/26 11:31:29;;;;;;;7.70;4.90;;;;;;;-145.69;nan;51735.47;5074028;28;20199;-85
2023/06/26 11:33:58;;;;;;;8.35;5.82;;;;;;;-145.69;nan;51697.84;5073887;28;20232;-84